Time;durP1;ratioP1;P1;durP2;ratioP2;P2;SDS_P1;SDS_P2;PMS_P1;PMS_P2;Temp;Humidity;BMP_temperature;BMP_pressure;BME280_temperature;BME280_humidity;BME280_pressure;Samples;Min_cycle;Max_cycle;Signal;HPM_P1;HPM_P2
2022/05/18 00:01:00;;;;;;;6.00;2.20;;;;;;;17.06;44.10;100093.20;117344;1186;22639;-57
2022/05/18 00:03:32;;;;;;;4.80;1.80;;;;;;;17.08;44.22;100089.73;117474;1186;23432;-50
2022/05/18 00:06:00;;;;;;;4.40;2.10;;;;;;;17.11;44.20;100088.54;117499;1186;21948;-50
2022/05/18 00:08:35;;;;;;;4.00;2.30;;;;;;;17.08;44.21;100085.65;117375;1185;21855;-57
2022/05/18 00:11:11;;;;;;;4.10;2.00;;;;;;;17.04;44.10;100080.69;117340;1185;24223;-51
2022/05/18 00:13:42;;;;;;;4.00;1.90;;;;;;;17.01;44.19;100076.23;117497;1185;21839;-52
2022/05/18 00:16:11;;;;;;;5.80;2.40;;;;;;;16.99;44.28;100073.64;117522;1185;24143;-57
2022/05/18 00:18:40;;;;;;;4.10;2.00;;;;;;;16.98;44.29;100076.20;117497;1186;21854;-57
2022/05/18 00:21:10;;;;;;;;;;;;;;;16.92;44.31;100075.19;117488;1186;22911;-57
2022/05/18 00:23:38;;;;;;;4.30;1.90;;;;;;;16.88;44.24;100077.48;117550;1185;22620;-50
2022/05/18 00:26:11;;;;;;;3.70;2.00;;;;;;;16.85;44.35;100080.44;117462;1186;24143;-57
2022/05/18 00:28:39;;;;;;;3.00;1.50;;;;;;;16.82;44.50;100081.99;117302;1185;23539;-50
2022/05/18 00:31:08;;;;;;;4.00;1.80;;;;;;;16.81;44.51;100076.02;117348;1185;21867;-57
2022/05/18 00:33:37;;;;;;;7.20;2.00;;;;;;;16.80;44.43;100075.13;117301;1186;24159;-57
2022/05/18 00:36:06;;;;;;;4.30;2.10;;;;;;;16.82;44.65;100071.54;117373;1186;23587;-50
2022/05/18 00:38:34;;;;;;;6.00;2.10;;;;;;;16.84;44.63;100072.14;117392;1185;23538;-56
2022/05/18 00:41:03;;;;;;;5.20;2.10;;;;;;;16.86;44.64;100070.46;117559;1185;23560;-57
2022/05/18 00:43:31;;;;;;;4.50;2.40;;;;;;;16.87;44.65;100072.39;117522;1186;21896;-57
2022/05/18 00:46:01;;;;;;;5.90;2.30;;;;;;;16.86;44.73;100070.82;117413;1184;23542;-49
2022/05/18 00:48:30;;;;;;;;;;;;;;;16.85;44.76;100069.10;117395;1185;23519;-57
2022/05/18 00:51:00;;;;;;;3.60;2.20;;;;;;;16.83;44.92;100068.65;117547;1185;23563;-50
2022/05/18 00:53:34;;;;;;;5.30;2.60;;;;;;;16.81;44.87;100066.43;117480;1186;21967;-50
2022/05/18 00:56:08;;;;;;;4.10;1.90;;;;;;;16.79;44.92;100069.50;117324;1186;22643;-55
2022/05/18 00:58:50;;;;;;;5.30;2.10;;;;;;;16.79;44.83;100067.04;117567;1185;21869;-57
2022/05/18 01:01:18;;;;;;;5.60;2.30;;;;;;;16.77;44.83;100066.24;117482;1184;22974;-57
2022/05/18 01:03:50;;;;;;;4.30;2.00;;;;;;;16.76;44.84;100058.86;117527;1185;22997;-57
2022/05/18 01:06:53;;;;;;;2.50;1.90;;;;;;;16.74;44.89;100059.29;117313;1186;21850;-57
2022/05/18 01:09:27;;;;;;;8.90;2.00;;;;;;;16.70;44.84;100051.66;117375;1186;22882;-49
2022/05/18 01:11:56;;;;;;;4.80;1.50;;;;;;;16.66;44.80;100052.88;117547;1185;21836;-49
2022/05/18 01:14:27;;;;;;;3.20;1.50;;;;;;;16.64;44.71;100048.19;117420;1185;21972;-57
2022/05/18 01:16:55;;;;;;;;;;;;;;;16.62;44.77;100048.80;117281;1186;21892;-50
2022/05/18 01:19:37;;;;;;;2.40;1.10;;;;;;;16.59;44.70;100052.67;117401;1185;21863;-57
2022/05/18 01:22:23;;;;;;;3.60;1.60;;;;;;;16.54;44.55;100051.45;117463;1186;23465;-50
2022/05/18 01:25:02;;;;;;;3.40;1.40;;;;;;;16.51;44.61;100050.52;117314;1185;21896;-50
2022/05/18 01:27:31;;;;;;;5.10;1.60;;;;;;;16.49;44.54;100050.77;117520;1185;21867;-57
2022/05/18 01:29:59;;;;;;;6.50;1.50;;;;;;;16.48;44.52;100048.70;117351;1182;23436;-50
2022/05/18 01:32:41;;;;;;;3.60;1.30;;;;;;;16.46;44.60;100047.55;117434;1185;24162;-50
2022/05/18 01:35:12;;;;;;;2.10;1.00;;;;;;;16.39;44.43;100046.95;117375;1185;22190;-49
2022/05/18 01:37:40;;;;;;;4.30;1.50;;;;;;;16.32;44.39;100046.86;117380;1185;21849;-50
2022/05/18 01:40:34;;;;;;;1.80;1.00;;;;;;;16.28;44.37;100050.20;117518;1184;24131;-49
2022/05/18 01:43:16;;;;;;;3.80;1.20;;;;;;;16.26;44.41;100050.49;117323;1185;24681;-49
2022/05/18 01:45:50;;;;;;;4.80;1.20;;;;;;;16.23;44.30;100046.88;117277;1186;23595;-57
2022/05/18 01:48:21;;;;;;;3.30;0.90;;;;;;;16.22;44.27;100050.84;117297;1185;23006;-57
2022/05/18 01:50:49;;;;;;;;;;;;;;;16.19;44.26;100051.48;117426;1184;21916;-50
2022/05/18 01:53:18;;;;;;;4.00;1.40;;;;;;;16.14;44.28;100059.45;117455;1185;23554;-50
2022/05/18 01:55:48;;;;;;;3.60;1.30;;;;;;;16.03;44.20;100071.77;117352;1186;21849;-57
2022/05/18 01:58:17;;;;;;;4.20;1.10;;;;;;;15.91;44.20;100077.71;117377;1185;23560;-50
2022/05/18 02:00:45;;;;;;;5.20;1.50;;;;;;;15.84;44.25;100077.09;117194;1188;24183;-50
2022/05/18 02:03:14;;;;;;;5.10;1.20;;;;;;;15.80;44.18;100084.67;117300;1185;22693;-58
2022/05/18 02:05:42;;;;;;;6.70;1.20;;;;;;;15.79;44.06;100082.92;117384;1186;23142;-56
2022/05/18 02:08:12;;;;;;;3.50;1.10;;;;;;;15.76;44.20;100084.27;117346;1186;23873;-50
2022/05/18 02:10:44;;;;;;;4.10;1.00;;;;;;;15.73;44.03;100088.83;117262;1186;22021;-50
2022/05/18 02:13:12;;;;;;;4.60;0.90;;;;;;;15.67;43.96;100092.24;117291;1186;23631;-50
2022/05/18 02:15:41;;;;;;;3.70;1.30;;;;;;;15.63;43.93;100088.68;117497;1186;23754;-57
2022/05/18 02:18:10;;;;;;;2.70;1.00;;;;;;;15.60;43.85;100094.41;117470;1184;23459;-56
2022/05/18 02:20:39;;;;;;;2.60;0.90;;;;;;;15.58;43.94;100096.46;117475;1181;22100;-58
2022/05/18 02:23:07;;;;;;;8.50;0.80;;;;;;;15.54;43.82;100098.89;117386;1184;21889;-58
2022/05/18 02:25:37;;;;;;;4.80;1.30;;;;;;;15.52;43.75;100105.86;117459;1186;22988;-51
2022/05/18 02:28:05;;;;;;;6.00;1.00;;;;;;;15.50;43.72;100102.75;117338;1185;22564;-51
2022/05/18 02:30:34;;;;;;;3.20;0.80;;;;;;;15.47;43.67;100108.36;117422;1185;23816;-51
2022/05/18 02:33:02;;;;;;;2.10;1.00;;;;;;;15.44;43.66;100114.49;117552;1186;22902;-51
2022/05/18 02:35:31;;;;;;;4.90;1.30;;;;;;;15.41;43.63;100119.38;117338;1184;22830;-58
2022/05/18 02:38:00;;;;;;;3.40;1.10;;;;;;;15.38;43.54;100121.75;117377;1184;23441;-50
2022/05/18 02:40:28;;;;;;;3.30;1.20;;;;;;;15.36;43.42;100125.73;117367;1185;23557;-56
2022/05/18 02:42:57;;;;;;;4.40;1.00;;;;;;;15.33;43.35;100127.25;117367;1186;23566;-49
2022/05/18 02:45:25;;;;;;;6.60;1.30;;;;;;;15.31;43.39;100133.30;117403;1186;23590;-52
2022/05/18 02:47:53;;;;;;;7.30;1.10;;;;;;;15.31;43.31;100134.02;117368;1185;23545;-56
2022/05/18 02:50:22;;;;;;;4.50;1.30;;;;;;;15.29;43.26;100139.77;117363;1185;23557;-50
2022/05/18 02:52:50;;;;;;;4.30;1.10;;;;;;;15.26;43.21;100145.16;117390;1185;23544;-56
2022/05/18 02:58:06;;;;;;;4.60;1.20;;;;;;;15.21;43.13;100154.37;117264;1186;23621;-56
2022/05/18 03:00:34;;;;;;;4.00;1.20;;;;;;;15.18;43.05;100160.65;117331;1186;22711;-56
2022/05/18 03:03:06;;;;;;;7.30;1.30;;;;;;;15.15;43.03;100166.58;117493;1185;22962;-56
2022/05/18 03:05:35;;;;;;;3.10;1.60;;;;;;;15.13;42.95;100175.67;117269;1186;22825;-56
2022/05/18 03:08:05;;;;;;;4.30;1.10;;;;;;;15.09;42.91;100174.22;117405;1186;23564;-56
2022/05/18 03:10:35;;;;;;;3.90;1.00;;;;;;;15.04;42.81;100179.66;117267;1186;23083;-55
2022/05/18 03:13:04;;;;;;;7.10;1.90;;;;;;;15.01;42.90;100180.47;117344;1185;24160;-55
2022/05/18 03:15:33;;;;;;;4.70;1.30;;;;;;;14.99;42.90;100185.51;117403;1186;22615;-54
2022/05/18 03:18:01;;;;;;;3.60;1.20;;;;;;;14.97;42.83;100194.02;117396;1186;21915;-55
2022/05/18 03:23:35;;;;;;;3.40;1.10;;;;;;;14.90;42.83;100198.87;117317;1186;21853;-56
2022/05/18 03:26:05;;;;;;;4.60;1.50;;;;;;;14.87;42.84;100198.07;117265;1186;22537;-56
2022/05/18 03:28:33;;;;;;;4.00;1.20;;;;;;;14.86;42.80;100200.42;117269;1185;22885;-49
2022/05/18 03:31:02;;;;;;;2.90;1.30;;;;;;;14.82;42.89;100203.55;119390;1184;22159;-55
2022/05/18 03:33:30;;;;;;;5.20;1.20;;;;;;;14.78;42.77;100208.98;117493;1180;21869;-55
2022/05/18 03:35:58;;;;;;;4.00;1.50;;;;;;;14.73;42.83;100207.55;117340;1186;23544;-55
2022/05/18 03:38:26;;;;;;;5.10;0.90;;;;;;;14.66;42.87;100207.54;117283;1186;23566;-55
2022/05/18 03:40:55;;;;;;;5.50;1.30;;;;;;;14.63;42.81;100216.13;117273;1186;21861;-56
2022/05/18 03:43:23;;;;;;;5.60;1.50;;;;;;;14.62;42.80;100222.16;117450;1185;21845;-50
2022/05/18 03:45:51;;;;;;;5.50;2.00;;;;;;;14.64;42.88;100225.44;117334;1185;23566;-49
2022/05/18 03:48:20;;;;;;;6.70;1.50;;;;;;;14.69;42.91;100225.67;117362;1185;23592;-51
2022/05/18 03:50:48;;;;;;;5.70;1.50;;;;;;;14.74;42.93;100226.77;117415;1185;24158;-51
2022/05/18 03:53:17;;;;;;;9.00;1.70;;;;;;;14.79;42.74;100233.50;117511;1185;23438;-51
2022/05/18 03:55:46;;;;;;;9.30;1.90;;;;;;;14.81;42.53;100230.25;117338;1186;23545;-49
2022/05/18 03:58:14;;;;;;;5.20;1.60;;;;;;;14.81;42.57;100226.19;117305;1186;21948;-55
2022/05/18 04:00:44;;;;;;;6.30;1.60;;;;;;;14.80;42.46;100225.85;117514;1186;22851;-56
2022/05/18 04:03:13;;;;;;;3.60;1.50;;;;;;;14.78;42.40;100230.70;117339;1183;22956;-50
2022/05/18 04:05:41;;;;;;;11.20;1.90;;;;;;;14.75;42.37;100234.86;117378;1185;22315;-50
2022/05/18 04:08:10;;;;;;;6.40;2.00;;;;;;;14.75;42.43;100234.52;117363;1185;23557;-55
2022/05/18 04:10:40;;;;;;;7.60;2.00;;;;;;;14.78;42.53;100243.08;117510;1184;23563;-51
2022/05/18 04:13:18;;;;;;;4.80;1.90;;;;;;;14.77;42.41;100246.63;117470;1185;22272;-51
2022/05/18 04:15:47;;;;;;;4.00;1.50;;;;;;;14.72;42.30;100250.14;117330;1181;22935;-54
2022/05/18 04:18:15;;;;;;;6.70;2.00;;;;;;;14.69;42.31;100256.59;117440;1186;21849;-56
2022/05/18 04:20:44;;;;;;;6.90;1.40;;;;;;;14.66;42.17;100258.94;117393;1185;21842;-56
2022/05/18 04:23:13;;;;;;;3.90;1.50;;;;;;;14.63;42.09;100264.15;117363;1184;23506;-50
2022/05/18 04:25:41;;;;;;;7.20;2.00;;;;;;;14.60;42.06;100263.91;117345;1186;22990;-51
2022/05/18 04:28:13;;;;;;;7.30;2.40;;;;;;;14.58;42.05;100258.11;117386;1185;24159;-55
2022/05/18 04:30:43;;;;;;;7.00;2.50;;;;;;;14.56;42.01;100260.84;117336;1186;23465;-53
2022/05/18 04:33:19;;;;;;;7.40;2.30;;;;;;;14.54;41.99;100261.27;117287;1186;21903;-50
2022/05/18 04:35:50;;;;;;;5.80;2.50;;;;;;;14.50;41.82;100256.78;117324;1186;24159;-55
2022/05/18 04:38:21;;;;;;;5.70;2.40;;;;;;;14.45;41.87;100252.86;117324;1185;22713;-52
2022/05/18 04:40:55;;;;;;;4.90;2.20;;;;;;;14.46;41.94;100255.51;117342;1185;21882;-55
2022/05/18 04:43:24;;;;;;;8.70;2.90;;;;;;;14.48;41.70;100259.16;117367;1185;21867;-55
2022/05/18 04:45:55;;;;;;;5.70;2.60;;;;;;;14.50;41.66;100261.40;117425;1185;21850;-51
2022/05/18 04:48:24;;;;;;;12.00;2.70;;;;;;;14.52;41.64;100262.39;117391;1186;21861;-55
2022/05/18 04:50:53;;;;;;;5.40;2.90;;;;;;;14.51;41.67;100260.65;117346;1185;22910;-51
2022/05/18 04:53:21;;;;;;;7.50;2.60;;;;;;;14.45;41.65;100259.59;117279;1184;24153;-56
2022/05/18 04:55:51;;;;;;;5.90;2.60;;;;;;;14.43;41.59;100267.77;117360;1184;23678;-55
2022/05/18 04:58:20;;;;;;;6.20;2.80;;;;;;;14.46;41.44;100266.64;117447;1186;21893;-51
2022/05/18 05:00:57;;;;;;;7.10;2.70;;;;;;;14.46;41.45;100263.81;117346;1186;23544;-55
2022/05/18 05:03:25;;;;;;;8.30;2.80;;;;;;;14.49;41.40;100268.13;117269;1186;23709;-55
2022/05/18 05:06:01;;;;;;;6.90;3.10;;;;;;;14.54;41.46;100267.26;117272;1186;23612;-55
2022/05/18 05:08:30;;;;;;;9.50;3.30;;;;;;;14.56;41.38;100279.91;117284;1186;23544;-55
2022/05/18 05:11:00;;;;;;;10.30;3.20;;;;;;;14.55;41.30;100279.05;117326;1185;21875;-51
2022/05/18 05:13:28;;;;;;;15.10;6.70;;;;;;;14.54;41.28;100280.69;117434;1185;23554;-51
2022/05/18 05:16:05;;;;;;;9.50;4.20;;;;;;;14.53;41.36;100283.19;117376;1185;23555;-55
2022/05/18 05:18:35;;;;;;;8.50;4.70;;;;;;;14.56;41.36;100284.14;117365;1183;21848;-50
2022/05/18 05:21:03;;;;;;;7.60;3.70;;;;;;;14.63;41.26;100293.48;117355;1186;23557;-51
2022/05/18 05:23:32;;;;;;;9.00;4.60;;;;;;;14.75;41.28;100291.92;117359;1185;22885;-52
2022/05/18 05:26:00;;;;;;;9.30;2.90;;;;;;;14.82;41.06;100294.17;117380;1186;21887;-51
2022/05/18 05:28:29;;;;;;;6.30;2.70;;;;;;;14.85;41.05;100292.30;117363;1185;24184;-54
2022/05/18 05:31:02;;;;;;;6.10;2.70;;;;;;;14.91;41.12;100292.84;117330;1186;23404;-51
2022/05/18 05:33:31;;;;;;;8.20;2.70;;;;;;;14.96;41.06;100287.17;117358;1186;22466;-56
2022/05/18 05:36:00;;;;;;;6.50;2.20;;;;;;;14.99;40.99;100286.73;117445;1185;22610;-50
2022/05/18 05:38:28;;;;;;;6.60;2.20;;;;;;;15.01;40.96;100284.91;117487;1186;23662;-55
2022/05/18 05:40:59;;;;;;;5.60;2.00;;;;;;;15.05;40.92;100287.61;117442;1186;23441;-55
2022/05/18 05:43:31;;;;;;;7.00;1.90;;;;;;;15.09;40.95;100289.41;117405;1185;23465;-51
2022/05/18 05:46:04;;;;;;;8.60;2.40;;;;;;;15.14;40.92;100292.10;117446;1183;22026;-55
2022/05/18 05:48:33;;;;;;;4.30;2.00;;;;;;;15.20;40.88;100297.37;117510;1184;24221;-52
2022/05/18 05:51:01;;;;;;;5.80;2.60;;;;;;;15.26;40.85;100305.46;117372;1185;23102;-55
2022/05/18 05:53:32;;;;;;;10.30;3.10;;;;;;;15.34;40.81;100307.73;117381;1185;22052;-55
2022/05/18 05:56:02;;;;;;;5.70;2.80;;;;;;;15.41;40.74;100305.70;117498;1185;23471;-56
2022/05/18 05:58:33;;;;;;;8.50;3.00;;;;;;;15.43;40.76;100309.20;117372;1185;21851;-51
2022/05/18 06:01:03;;;;;;;7.30;3.10;;;;;;;15.43;40.66;100309.18;117394;1186;22911;-51
2022/05/18 06:03:34;;;;;;;12.20;4.50;;;;;;;15.44;40.63;100307.01;117384;1185;23614;-55
2022/05/18 06:06:03;;;;;;;14.10;4.60;;;;;;;15.45;40.49;100311.38;117419;1183;21895;-52
2022/05/18 06:08:33;;;;;;;11.10;4.90;;;;;;;15.45;40.50;100313.48;117359;1185;22863;-54
2022/05/18 06:11:03;;;;;;;11.60;5.30;;;;;;;15.48;40.62;100317.30;117372;1186;23089;-55
2022/05/18 06:13:32;;;;;;;12.50;5.40;;;;;;;15.54;40.57;100317.65;117523;1184;21879;-56
2022/05/18 06:16:01;;;;;;;13.10;8.80;;;;;;;15.60;40.54;100314.63;117378;1185;21894;-51
2022/05/18 06:18:30;;;;;;;13.40;8.20;;;;;;;15.69;40.64;100316.09;117354;1185;22976;-50
2022/05/18 06:20:58;;;;;;;14.70;9.50;;;;;;;15.77;40.66;100313.12;117408;1185;21919;-55
2022/05/18 06:23:27;;;;;;;17.40;10.60;;;;;;;15.87;40.57;100317.05;117550;1185;21863;-55
2022/05/18 06:25:59;;;;;;;14.40;9.90;;;;;;;15.99;40.65;100325.31;117392;1180;21837;-51
2022/05/18 06:28:28;;;;;;;17.40;8.70;;;;;;;16.12;40.63;100328.08;117398;1184;21903;-55
2022/05/18 06:30:57;;;;;;;16.40;9.30;;;;;;;16.21;40.55;100325.79;117324;1185;23678;-55
2022/05/18 06:33:26;;;;;;;22.10;11.00;;;;;;;16.32;40.57;100328.90;117339;1185;24142;-52
2022/05/18 06:35:54;;;;;;;20.10;10.50;;;;;;;16.44;40.54;100342.11;117345;1184;22935;-53
2022/05/18 06:38:23;;;;;;;20.10;9.20;;;;;;;16.59;40.62;100339.77;117338;1185;22779;-52
2022/05/18 06:43:40;;;;;;;16.00;8.90;;;;;;;16.81;40.27;100348.50;117272;1186;22078;-55
2022/05/18 06:46:09;;;;;;;13.00;8.10;;;;;;;16.85;40.20;100356.68;117368;1185;21861;-56
2022/05/18 06:48:43;;;;;;;11.20;7.80;;;;;;;16.91;40.25;100362.81;117406;1185;21862;-55
2022/05/18 06:51:21;;;;;;;15.80;7.70;;;;;;;16.97;40.15;100366.38;117337;1186;22195;-52
2022/05/18 06:53:51;;;;;;;9.80;6.00;;;;;;;17.03;40.17;100363.46;119347;1183;21876;-56
2022/05/18 06:56:21;;;;;;;12.20;6.90;;;;;;;17.18;40.11;100362.88;117420;1185;23447;-55
2022/05/18 06:58:50;;;;;;;12.90;5.80;;;;;;;17.35;39.98;100362.36;117562;1185;23474;-53
2022/05/18 07:01:18;;;;;;;10.00;5.30;;;;;;;17.49;39.94;100366.58;117962;1185;21862;-54
2022/05/18 07:03:47;;;;;;;11.30;5.80;;;;;;;17.67;40.01;100361.41;117384;1185;22052;-55
2022/05/18 07:06:19;;;;;;;18.90;6.10;;;;;;;17.91;40.15;100356.51;117177;1186;24195;-53
2022/05/18 07:08:48;;;;;;;7.80;5.00;;;;;;;18.23;40.35;100354.06;117466;1185;24174;-55
2022/05/18 07:11:20;;;;;;;9.40;4.60;;;;;;;18.55;40.26;100353.50;117373;1185;21868;-52
2022/05/18 07:13:51;;;;;;;12.10;4.70;;;;;;;18.83;39.99;100354.71;117359;1185;22912;-53
2022/05/18 07:16:23;;;;;;;;;;;;;;;19.06;40.09;100353.83;119127;1184;23566;-55
2022/05/18 07:18:51;;;;;;;12.20;4.20;;;;;;;19.30;39.93;100356.27;117337;1185;23627;-55
2022/05/18 07:21:21;;;;;;;12.10;3.90;;;;;;;19.46;39.71;100360.96;117327;1185;24152;-52
2022/05/18 07:23:49;;;;;;;8.00;3.40;;;;;;;19.66;39.88;100370.66;117326;1186;21964;-52
2022/05/18 07:26:19;;;;;;;10.50;3.20;;;;;;;19.88;39.82;100372.42;117425;1185;21901;-52
2022/05/18 07:28:47;;;;;;;8.10;3.00;;;;;;;20.12;39.87;100376.20;117406;1185;23544;-55
2022/05/18 07:31:16;;;;;;;8.20;2.90;;;;;;;20.36;39.64;100382.80;117405;1185;21964;-55
2022/05/18 07:34:06;;;;;;;10.50;2.80;;;;;;;20.50;39.08;100382.20;117520;1185;21843;-52
2022/05/18 07:36:34;;;;;;;5.20;3.00;;;;;;;20.52;38.75;100384.46;117478;1185;23030;-54
2022/05/18 07:39:03;;;;;;;8.80;2.80;;;;;;;20.48;38.27;100388.00;117367;1185;21857;-53
2022/05/18 07:41:32;;;;;;;8.50;3.30;;;;;;;20.47;38.62;100393.77;117347;1185;23566;-52
2022/05/18 07:44:00;;;;;;;10.30;3.50;;;;;;;20.55;38.64;100391.03;117232;1186;22925;-55
2022/05/18 07:46:29;;;;;;;8.00;3.90;;;;;;;20.69;38.49;100389.95;117306;1185;23544;-55
2022/05/18 07:48:58;;;;;;;7.30;3.60;;;;;;;20.78;38.39;100391.98;117391;1186;23545;-55
2022/05/18 07:51:26;;;;;;;7.50;3.90;;;;;;;20.78;38.25;100394.42;117334;1186;21858;-56
2022/05/18 07:53:55;;;;;;;10.20;4.30;;;;;;;20.81;38.28;100393.79;117348;1185;24149;-53
2022/05/18 07:56:24;;;;;;;18.30;8.20;;;;;;;20.88;38.36;100392.33;117301;1186;23615;-55
2022/05/18 07:58:53;;;;;;;8.20;5.10;;;;;;;21.06;38.02;100396.28;117350;1185;22930;-53
2022/05/18 08:01:22;;;;;;;14.90;7.30;;;;;;;21.19;38.02;100396.15;117308;1186;22686;-55
2022/05/18 08:03:51;;;;;;;14.80;6.90;;;;;;;21.26;37.61;100406.83;117392;1185;22900;-55
2022/05/18 08:06:20;;;;;;;20.30;8.60;;;;;;;21.28;37.43;100413.11;117383;1186;23565;-56
2022/05/18 08:08:48;;;;;;;16.90;8.50;;;;;;;21.30;37.31;100406.95;117458;1185;23624;-54
2022/05/18 08:16:52;;;;;;;12.80;7.30;;;;;;;21.55;37.22;100426.23;117347;1187;23639;-53
2022/05/18 08:19:20;;;;;;;15.20;8.70;;;;;;;21.78;37.38;100424.58;117284;1186;23546;-56
2022/05/18 08:21:48;;;;;;;12.40;7.40;;;;;;;22.03;37.04;100425.41;117357;1186;23648;-53
2022/05/18 08:24:17;;;;;;;13.10;7.10;;;;;;;22.12;36.78;100422.58;117314;1185;22841;-53
2022/05/18 08:26:49;;;;;;;13.20;8.40;;;;;;;22.21;37.03;100424.70;117286;1185;23553;-53
2022/05/18 08:29:17;;;;;;;16.90;8.60;;;;;;;22.33;36.44;100432.27;117557;1184;21846;-53
2022/05/18 08:31:49;;;;;;;11.80;7.50;;;;;;;22.18;35.95;100432.63;117377;1181;23576;-53
2022/05/18 08:34:19;;;;;;;15.00;8.20;;;;;;;21.96;35.86;100431.42;117374;1185;21855;-55
2022/05/18 08:36:49;;;;;;;15.80;8.30;;;;;;;21.82;35.74;100431.13;117344;1186;22331;-55
2022/05/18 08:39:17;;;;;;;12.80;8.60;;;;;;;21.77;35.79;100440.16;117349;1185;21919;-56
2022/05/18 08:41:46;;;;;;;15.70;8.00;;;;;;;21.61;35.91;100444.65;117395;1185;21964;-52
2022/05/18 08:44:28;;;;;;;16.60;11.00;;;;;;;21.56;35.88;100444.76;117411;1185;21850;-55
2022/05/18 08:47:11;;;;;;;14.30;9.10;;;;;;;21.58;35.95;100440.31;117311;1185;21896;-55
2022/05/18 08:49:50;;;;;;;15.10;10.30;;;;;;;21.73;36.11;100437.85;117259;1185;23592;-56
2022/05/18 08:52:46;;;;;;;19.30;11.80;;;;;;;22.12;36.58;100438.27;117227;1185;24162;-53
2022/05/18 08:55:36;;;;;;;19.60;12.70;;;;;;;22.54;36.31;100443.67;117216;1180;23618;-57
2022/05/18 08:58:09;;;;;;;16.90;12.40;;;;;;;22.71;35.70;100441.73;117308;1184;23567;-53
2022/05/18 09:01:05;;;;;;;28.60;14.20;;;;;;;22.71;34.89;100437.59;117400;1185;23536;-54
2022/05/18 09:03:49;;;;;;;22.70;13.10;;;;;;;22.68;35.02;100440.85;117101;1186;22033;-54
2022/05/18 09:06:34;;;;;;;19.90;14.00;;;;;;;22.68;35.09;100446.22;117210;1186;21886;-54
2022/05/18 09:11:59;;;;;;;17.80;12.40;;;;;;;22.79;34.69;100442.15;117329;1186;22813;-56
2022/05/18 09:14:36;;;;;;;13.00;9.70;;;;;;;22.67;34.18;100444.48;117240;1186;22802;-56
2022/05/18 09:17:23;;;;;;;12.70;8.60;;;;;;;22.40;33.48;100447.56;117446;1184;21968;-54
2022/05/18 09:20:23;;;;;;;13.90;8.10;;;;;;;22.33;34.11;100444.75;117290;1185;22921;-55
2022/05/18 09:22:56;;;;;;;11.70;6.50;;;;;;;22.55;34.14;100451.48;117279;1185;21954;-55
2022/05/18 09:25:31;;;;;;;7.70;4.60;;;;;;;22.60;33.60;100448.65;117273;1186;22928;-53
2022/05/18 09:28:24;;;;;;;10.40;4.50;;;;;;;22.59;33.15;100440.14;117364;1185;21849;-56
2022/05/18 09:30:59;;;;;;;9.90;4.70;;;;;;;22.60;33.42;100456.39;117304;1186;23596;-54
2022/05/18 09:34:14;;;;;;;10.80;3.70;;;;;;;22.56;33.59;100459.27;117324;1179;23557;-56
2022/05/18 09:36:56;;;;;;;4.70;2.50;;;;;;;22.59;33.54;100443.74;117485;1184;21865;-57
2022/05/18 09:39:26;;;;;;;4.30;1.90;;;;;;;22.79;33.66;100440.15;117517;1185;21846;-54
2022/05/18 09:42:21;;;;;;;;;;;;;;;22.86;32.42;100447.27;117381;1185;24165;-56
2022/05/18 09:45:03;;;;;;;2.80;1.20;;;;;;;22.52;32.41;100458.11;117422;1185;23005;-56
2022/05/18 09:47:56;;;;;;;4.60;1.30;;;;;;;22.27;32.41;100457.78;117224;1188;21854;-56
2022/05/18 09:50:25;;;;;;;5.80;1.20;;;;;;;22.33;32.31;100457.40;117398;1185;23544;-56
2022/05/18 09:52:54;;;;;;;3.80;1.00;;;;;;;22.42;32.42;100456.33;117336;1185;21851;-56
2022/05/18 09:55:24;;;;;;;3.80;0.90;;;;;;;22.40;32.42;100450.92;117490;1185;24142;-57
2022/05/18 09:57:58;;;;;;;6.60;1.00;;;;;;;22.53;32.11;100455.73;117322;1185;21862;-54
2022/05/18 10:00:34;;;;;;;2.70;0.80;;;;;;;22.55;32.16;100464.88;117363;1184;23630;-54
2022/05/18 10:08:58;;;;;;;4.30;0.70;;;;;;;21.96;32.05;100460.66;117431;1185;21860;-56
2022/05/18 10:11:33;;;;;;;3.60;0.90;;;;;;;22.12;32.23;100467.41;117366;1185;22168;-54
2022/05/18 10:14:05;;;;;;;4.30;1.30;;;;;;;22.19;31.80;100479.71;117452;1184;22919;-56
2022/05/18 10:16:38;;;;;;;2.90;1.00;;;;;;;22.22;32.00;100480.41;117363;1185;21980;-56
2022/05/18 10:19:12;;;;;;;10.10;1.00;;;;;;;22.50;32.25;100478.78;117364;1185;21915;-56
2022/05/18 10:21:50;;;;;;;4.10;0.80;;;;;;;22.98;32.46;100470.30;117358;1181;21863;-56
2022/05/18 10:24:47;;;;;;;3.00;0.80;;;;;;;23.36;31.48;100478.84;117345;1184;23538;-54
2022/05/18 10:27:15;;;;;;;2.00;0.70;;;;;;;23.26;31.03;100493.23;117324;1186;21854;-54
2022/05/18 10:30:04;;;;;;;2.90;0.80;;;;;;;22.96;30.81;100488.13;117358;1185;23540;-54
2022/05/18 10:32:33;;;;;;;1.70;0.70;;;;;;;22.57;30.81;100499.42;117378;1185;23547;-54
2022/05/18 10:35:02;;;;;;;3.90;0.90;;;;;;;22.50;31.42;100496.85;117332;1185;21855;-54
2022/05/18 10:37:32;;;;;;;1.20;0.60;;;;;;;22.81;31.01;100490.66;117116;1187;24322;-55
2022/05/18 10:40:11;;;;;;;1.60;0.60;;;;;;;22.89;30.63;100490.16;117343;1186;21899;-55
2022/05/18 10:42:52;;;;;;;2.00;0.60;;;;;;;22.88;30.88;100486.33;117329;1185;23574;-55
2022/05/18 10:45:26;;;;;;;2.80;0.70;;;;;;;22.82;30.58;100493.48;117056;1186;21910;-54
2022/05/18 10:47:56;;;;;;;3.60;0.70;;;;;;;22.53;30.17;100496.80;117413;1185;22803;-55
2022/05/18 10:50:27;;;;;;;2.60;0.60;;;;;;;22.29;30.50;100494.65;117413;1185;22909;-54
2022/05/18 10:53:00;;;;;;;3.30;0.70;;;;;;;22.34;30.76;100504.73;117364;1185;23633;-53
2022/05/18 10:55:30;;;;;;;2.40;0.70;;;;;;;22.33;30.14;100497.27;117418;1185;23465;-54
2022/05/18 10:58:05;;;;;;;4.40;0.70;;;;;;;22.11;30.33;100495.90;117370;1185;21975;-54
2022/05/18 11:01:07;;;;;;;2.20;0.70;;;;;;;22.16;30.42;100491.70;117316;1188;22911;-55
2022/05/18 11:03:40;;;;;;;1.80;0.60;;;;;;;22.43;30.39;100495.08;117264;1185;22591;-55
2022/05/18 11:06:37;;;;;;;1.90;0.50;;;;;;;22.77;30.56;100492.33;117294;1185;21852;-55
2022/05/18 11:09:29;;;;;;;3.30;0.80;;;;;;;23.26;30.73;100492.20;117282;1185;21916;-53
2022/05/18 11:12:15;;;;;;;4.30;0.90;;;;;;;23.70;30.77;100492.06;117744;1185;21864;-54
2022/05/18 11:14:47;;;;;;;1.60;0.50;;;;;;;23.80;30.31;100495.20;117389;1182;21870;-56
2022/05/18 11:17:46;;;;;;;3.70;1.40;;;;;;;23.87;30.65;100497.77;117120;1186;21863;-55
2022/05/18 11:20:26;;;;;;;3.10;0.50;;;;;;;24.17;30.91;100492.20;117333;1185;23567;-58
2022/05/18 11:23:04;;;;;;;2.90;0.40;;;;;;;24.51;30.81;100486.30;117340;1184;22916;-57
2022/05/18 11:26:03;;;;;;;2.10;0.40;;;;;;;24.63;30.30;100495.67;117421;1185;23542;-56
2022/05/18 11:28:58;;;;;;;5.40;1.00;;;;;;;24.33;30.04;100505.45;117395;1185;23614;-57
2022/05/18 11:31:48;;;;;;;2.50;0.70;;;;;;;23.93;29.91;100514.71;117398;1185;21865;-56
2022/05/18 11:34:58;;;;;;;2.70;0.50;;;;;;;23.55;30.02;100517.58;117179;1186;23544;-55
2022/05/18 11:37:41;;;;;;;4.80;0.70;;;;;;;23.30;29.88;100523.79;117427;1185;22739;-56
2022/05/18 11:40:13;;;;;;;1.50;0.60;;;;;;;23.11;29.85;100531.02;117392;1185;23566;-53
2022/05/18 11:43:25;;;;;;;1.20;0.40;;;;;;;22.93;30.03;100525.16;117291;1185;21883;-57
2022/05/18 11:46:15;;;;;;;3.70;0.30;;;;;;;22.62;29.98;100525.06;117468;1185;23542;-56
2022/05/18 11:48:46;;;;;;;0.80;0.30;;;;;;;22.24;29.94;100527.15;117403;1185;23154;-54
2022/05/18 11:51:40;;;;;;;2.00;0.40;;;;;;;21.87;29.76;100526.73;117377;1186;22816;-57
2022/05/18 11:54:19;;;;;;;0.50;0.20;;;;;;;21.56;29.46;100528.46;117516;1184;21858;-56
2022/05/18 11:57:26;;;;;;;1.30;0.30;;;;;;;21.25;28.92;100545.14;117573;1185;23483;-56
2022/05/18 12:00:07;;;;;;;3.10;0.20;;;;;;;20.70;29.08;100551.91;117342;1185;23547;-55
2022/05/18 12:02:40;;;;;;;1.00;0.20;;;;;;;20.44;29.45;100561.11;117391;1183;21852;-54
2022/05/18 12:05:21;;;;;;;4.80;0.50;;;;;;;20.46;29.88;100564.76;117353;1185;23541;-55
2022/05/18 12:08:24;;;;;;;3.30;0.80;;;;;;;20.64;29.94;100566.53;117315;1186;22919;-54